Time;durP1;ratioP1;P1;durP2;ratioP2;P2;SDS_P1;SDS_P2;PMS_P1;PMS_P2;Temp;Humidity;BMP_temperature;BMP_pressure;BME280_temperature;BME280_humidity;BME280_pressure;Samples;Min_cycle;Max_cycle;Signal;HPM_P1;HPM_P2
2022/04/23 00:00:38;;;;;;;;;;;;;;;;;;5035689;28;1128;-70
2022/04/23 00:03:04;;;;;;;;;;;;;;;;;;5052183;28;818;-70
2022/04/23 00:05:30;;;;;;;;;;;;;;;;;;5052324;28;1092;-70
2022/04/23 00:07:57;;;;;;;;;;;;;;;;;;5051310;28;1408;-69
2022/04/23 00:10:23;;;;;;;;;;;;;;;;;;5051691;28;925;-70
2022/04/23 00:12:50;;;;;;;;;;;;;;;;;;5052104;28;1914;-70
2022/04/23 00:15:16;;;;;;;;;;;;;;;;;;5052002;28;1016;-70
2022/04/23 00:17:47;;;;;;;;;;;;;;;;;;5033667;28;1195;-70
2022/04/23 00:20:13;;;;;;;;;;;;;;;;;;5034006;28;1380;-70
2022/04/23 00:22:40;;;;;;;;;;;;;;;;;;5050916;28;893;-70
2022/04/23 00:25:07;;;;;;;;;;;;;;;;;;5051633;28;787;-70
2022/04/23 00:27:33;;;;;;;;;;;;;;;;;;5051640;28;747;-70
2022/04/23 00:29:59;;;;;;;;;;;;;;;;;;5033331;28;1364;-70
2022/04/23 00:32:25;;;;;;;;;;;;;;;;;;5051405;28;1973;-70
2022/04/23 00:34:53;;;;;;;;;;;;;;;;;;5051870;28;1009;-70
2022/04/23 00:37:19;;;;;;;;;;;;;;;;;;5051478;28;759;-70
2022/04/23 00:39:46;;;;;;;;;;;;;;;;;;5051593;28;1301;-70
2022/04/23 00:42:12;;;;;;;;;;;;;;;;;;5051112;28;1104;-70
2022/04/23 00:44:38;;;;;;;;;;;;;;;;;;5051670;28;846;-70
2022/04/23 00:47:05;;;;;;;;;;;;;;;;;;5051321;28;993;-70
2022/04/23 00:49:33;;;;;;;;;;;;;;;;;;5033637;28;1340;-70
2022/04/23 00:52:00;;;;;;;;;;;;;;;;;;5051386;28;1127;-70
2022/04/23 00:54:27;;;;;;;;;;;;;;;;;;5051400;28;1898;-70
2022/04/23 00:56:53;;;;;;;;;;;;;;;;;;5051350;28;1135;-70
2022/04/23 00:59:19;;;;;;;;;;;;;;;;;;5051901;28;1365;-70
2022/04/23 01:01:45;;;;;;;;;;;;;;;;;;5050970;28;977;-70
2022/04/23 01:04:12;;;;;;;;;;;;;;;;;;5051314;28;1076;-71
2022/04/23 01:06:38;;;;;;;;;;;;;;;;;;5051198;28;1123;-70
2022/04/23 01:09:06;;;;;;;;;;;;;;;;;;5033510;28;1348;-70
2022/04/23 01:11:33;;;;;;;;;;;;;;;;;;5051296;28;1003;-70
2022/04/23 01:13:59;;;;;;;;;;;;;;;;;;5051586;28;1988;-70
2022/04/23 01:16:25;;;;;;;;;;;;;;;;;;5051229;28;791;-69
2022/04/23 01:18:52;;;;;;;;;;;;;;;;;;5051457;28;1365;-70
2022/04/23 01:21:19;;;;;;;;;;;;;;;;;;5053879;28;798;-70
2022/04/23 01:23:45;;;;;;;;;;;;;;;;;;5038378;28;1500;-70
2022/04/23 01:26:14;;;;;;;;;;;;;;;;;;5056100;28;1463;-69
2022/04/23 01:28:40;;;;;;;;;;;;;;;;;;5054967;28;1404;-70
2022/04/23 01:31:07;;;;;;;;;;;;;;;;;;5054731;28;996;-70
2022/04/23 01:33:33;;;;;;;;;;;;;;;;;;5055969;28;1906;-70
2022/04/23 01:35:59;;;;;;;;;;;;;;;;;;5055530;28;1079;-69
2022/04/23 01:38:27;;;;;;;;;;;;;;;;;;5055189;28;1298;-70
2022/04/23 01:40:53;;;;;;;;;;;;;;;;;;5037761;28;1120;-70
2022/04/23 01:43:19;;;;;;;;;;;;;;;;;;5037204;28;1123;-70
2022/04/23 01:45:45;;;;;;;;;;;;;;;;;;5037074;28;1334;-70
2022/04/23 01:48:11;;;;;;;;;;;;;;;;;;5054215;28;1356;-69
2022/04/23 01:50:38;;;;;;;;;;;;;;;;;;5054744;28;846;-70
2022/04/23 01:53:05;;;;;;;;;;;;;;;;;;5054426;28;1973;-70
2022/04/23 01:55:32;;;;;;;;;;;;;;;;;;5078856;22;2007;-72
2022/04/23 01:57:58;;;;;;;;;;;;;;;;;;5072779;28;1179;-71
2022/04/23 02:00:25;;;;;;;;;;;;;;;;;;5073237;28;834;-72
2022/04/23 02:02:51;;;;;;;;;;;;;;;;;;5073659;28;957;-71
2022/04/23 02:05:17;;;;;;;;;;;;;;;;;;5085789;28;1394;-70
2022/04/23 02:07:44;;;;;;;;;;;;;;;;;;5093491;28;1110;-72
2022/04/23 02:10:11;;;;;;;;;;;;;;;;;;5093429;28;968;-72
2022/04/23 02:12:38;;;;;;;;;;;;;;;;;;5093718;28;1977;-71
2022/04/23 02:15:07;;;;;;;;;;;;;;;;;;5093710;28;1333;-71
2022/04/23 02:17:34;;;;;;;;;;;;;;;;;;5093299;28;1071;-71
2022/04/23 02:20:02;;;;;;;;;;;;;;;;;;5093404;28;1110;-71
2022/04/23 02:22:28;;;;;;;;;;;;;;;;;;5093512;28;905;-71
2022/04/23 02:24:54;;;;;;;;;;;;;;;;;;5093606;28;1312;-72
2022/04/23 02:27:20;;;;;;;;;;;;;;;;;;5093112;28;715;-69
2022/04/23 02:29:48;;;;;;;;;;;;;;;;;;5091934;28;1220;-72
2022/04/23 02:32:14;;;;;;;;;;;;;;;;;;5091938;28;1163;-71
2022/04/23 02:34:40;;;;;;;;;;;;;;;;;;5093320;28;1914;-70
2022/04/23 02:37:07;;;;;;;;;;;;;;;;;;5093182;28;1059;-72
2022/04/23 02:39:34;;;;;;;;;;;;;;;;;;5091379;28;1108;-72
2022/04/23 02:42:00;;;;;;;;;;;;;;;;;;5093246;28;836;-71
2022/04/23 02:44:26;;;;;;;;;;;;;;;;;;5093089;28;1323;-72
2022/04/23 02:46:54;;;;;;;;;;;;;;;;;;5092803;28;851;-71
2022/04/23 02:49:21;;;;;;;;;;;;;;;;;;5091383;28;1214;-71
2022/04/23 02:51:47;;;;;;;;;;;;;;;;;;5093435;28;1075;-72
2022/04/23 02:54:13;;;;;;;;;;;;;;;;;;5091429;28;1977;-71
2022/04/23 02:56:39;;;;;;;;;;;;;;;;;;5092480;28;1114;-72
2022/04/23 02:59:06;;;;;;;;;;;;;;;;;;5092854;28;996;-71
2022/04/23 03:01:34;;;;;;;;;;;;;;;;;;5092717;28;690;-70
2022/04/23 03:04:02;;;;;;;;;;;;;;;;;;5092706;28;1280;-71
2022/04/23 03:06:29;;;;;;;;;;;;;;;;;;5092462;28;1067;-72
2022/04/23 03:08:55;;;;;;;;;;;;;;;;;;5092388;28;862;-71
2022/04/23 03:11:21;;;;;;;;;;;;;;;;;;5091297;28;1159;-72
2022/04/23 03:13:47;;;;;;;;;;;;;;;;;;5092709;28;1914;-71
2022/04/23 03:16:13;;;;;;;;;;;;;;;;;;5092291;28;1425;-71
2022/04/23 03:18:40;;;;;;;;;;;;;;;;;;5091111;28;1400;-71
2022/04/23 03:21:07;;;;;;;;;;;;;;;;;;5092479;28;1035;-71
2022/04/23 03:23:33;;;;;;;;;;;;;;;;;;5088368;28;1602;-71
2022/04/23 03:26:00;;;;;;;;;;;;;;;;;;5072139;28;1558;-71
2022/04/23 03:28:26;;;;;;;;;;;;;;;;;;5070343;28;1139;-72
2022/04/23 03:30:52;;;;;;;;;;;;;;;;;;5072038;28;1008;-72
2022/04/23 03:33:19;;;;;;;;;;;;;;;;;;5071981;28;1973;-72
2022/04/23 03:35:45;;;;;;;;;;;;;;;;;;5070508;28;1381;-71
2022/04/23 03:38:12;;;;;;;;;;;;;;;;;;5071558;28;1024;-71
2022/04/23 03:40:39;;;;;;;;;;;;;;;;;;5072044;28;1122;-71
2022/04/23 03:43:05;;;;;;;;;;;;;;;;;;5070993;28;1075;-72
2022/04/23 03:45:32;;;;;;;;;;;;;;;;;;5071733;28;1391;-72
2022/04/23 03:47:59;;;;;;;;;;;;;;;;;;5071423;28;1091;-71
2022/04/23 03:50:26;;;;;;;;;;;;;;;;;;5071509;28;1138;-72
2022/04/23 03:52:52;;;;;;;;;;;;;;;;;;5071562;28;854;-72
2022/04/23 03:55:20;;;;;;;;;;;;;;;;;;5071245;28;1977;-72
2022/04/23 03:57:46;;;;;;;;;;;;;;;;;;5069340;28;2004;-71
2022/04/23 04:00:14;;;;;;;;;;;;;;;;;;5066548;28;1686;-71
2022/04/23 04:02:40;;;;;;;;;;;;;;;;;;5071220;28;1058;-71
2022/04/23 04:05:07;;;;;;;;;;;;;;;;;;5071427;28;1300;-72
2022/04/23 04:07:33;;;;;;;;;;;;;;;;;;5071201;28;1111;-71
2022/04/23 04:10:00;;;;;;;;;;;;;;;;;;5071422;28;786;-71
2022/04/23 04:12:28;;;;;;;;;;;;;;;;;;5071135;28;866;-71
2022/04/23 04:14:54;;;;;;;;;;;;;;;;;;5071212;28;2031;-71
2022/04/23 04:17:20;;;;;;;;;;;;;;;;;;5071232;28;739;-72
2022/04/23 04:19:46;;;;;;;;;;;;;;;;;;5070030;28;1293;-72
2022/04/23 04:22:13;;;;;;;;;;;;;;;;;;5071305;28;1141;-71
2022/04/23 04:24:39;;;;;;;;;;;;;;;;;;5069818;28;1353;-71
2022/04/23 04:27:06;;;;;;;;;;;;;;;;;;5069627;28;1163;-72
2022/04/23 04:29:33;;;;;;;;;;;;;;;;;;5071210;28;1150;-72
2022/04/23 04:32:00;;;;;;;;;;;;;;;;;;5069593;28;1366;-72
2022/04/23 04:34:28;;;;;;;;;;;;;;;;;;5071076;28;1910;-72
2022/04/23 04:37:00;;;;;;;;;;;;;;;;;;5070912;28;819;-71
2022/04/23 04:39:27;;;;;;;;;;;;;;;;;;5070939;28;894;-71
2022/04/23 04:41:53;;;;;;;;;;;;;;;;;;5070721;28;1072;-72
2022/04/23 04:44:19;;;;;;;;;;;;;;;;;;5070715;28;1418;-72
2022/04/23 04:46:46;;;;;;;;;;;;;;;;;;5070642;28;1092;-72
2022/04/23 04:49:13;;;;;;;;;;;;;;;;;;5070955;28;921;-72
2022/04/23 04:51:39;;;;;;;;;;;;;;;;;;5070801;28;1143;-72
2022/04/23 04:54:05;;;;;;;;;;;;;;;;;;5067716;28;1918;-71
2022/04/23 04:56:32;;;;;;;;;;;;;;;;;;5082020;28;1407;-71
2022/04/23 04:58:58;;;;;;;;;;;;;;;;;;5074641;28;1418;-72
2022/04/23 05:01:24;;;;;;;;;;;;;;;;;;5077949;28;1458;-72
2022/04/23 05:03:53;;;;;;;;;;;;;;;;;;5086536;28;1204;-71
2022/04/23 05:06:19;;;;;;;;;;;;;;;;;;5094444;28;980;-70
2022/04/23 05:08:46;;;;;;;;;;;;;;;;;;5094884;28;928;-72
2022/04/23 05:11:12;;;;;;;;;;;;;;;;;;5094819;28;1122;-72
2022/04/23 05:13:38;;;;;;;;;;;;;;;;;;5094534;28;1911;-72
2022/04/23 05:16:05;;;;;;;;;;;;;;;;;;5091482;28;1340;-72
2022/04/23 05:18:31;;;;;;;;;;;;;;;;;;5073937;28;1281;-72
2022/04/23 05:20:59;;;;;;;;;;;;;;;;;;5072842;28;1310;-72
2022/04/23 05:23:25;;;;;;;;;;;;;;;;;;5074137;28;1214;-72
2022/04/23 05:25:51;;;;;;;;;;;;;;;;;;5073453;28;1401;-71
2022/04/23 05:28:17;;;;;;;;;;;;;;;;;;5072865;28;1523;-73
2022/04/23 05:30:44;;;;;;;;;;;;;;;;;;5081036;28;1149;-72
2022/04/23 05:33:10;;;;;;;;;;;;;;;;;;5083414;28;1388;-72
2022/04/23 05:35:36;;;;;;;;;;;;;;;;;;5078017;28;1910;-72
2022/04/23 05:38:04;;;;;;;;;;;;;;;;;;5069667;28;1819;-72
2022/04/23 05:40:30;;;;;;;;;;;;;;;;;;5080159;28;1203;-72
2022/04/23 05:42:58;;;;;;;;;;;;;;;;;;5070979;28;1414;-72
2022/04/23 05:45:25;;;;;;;;;;;;;;;;;;5080098;28;1458;-72
2022/04/23 05:47:51;;;;;;;;;;;;;;;;;;5070882;28;1492;-72
2022/04/23 05:50:18;;;;;;;;;;;;;;;;;;5079064;28;1552;-72
2022/04/23 05:52:44;;;;;;;;;;;;;;;;;;5079112;28;1410;-72
2022/04/23 05:55:12;;;;;;;;;;;;;;;;;;5080411;28;1891;-72
2022/04/23 05:57:38;;;;;;;;;;;;;;;;;;5078614;28;1462;-71
2022/04/23 06:00:05;;;;;;;;;;;;;;;;;;5087777;28;1357;-72
2022/04/23 06:02:37;;;;;;;;;;;;;;;;;;5077829;28;1436;-72
2022/04/23 06:05:04;;;;;;;;;;;;;;;;;;5076876;28;1525;-72
2022/04/23 06:07:30;;;;;;;;;;;;;;;;;;5079060;28;1440;-72
2022/04/23 06:09:56;;;;;;;;;;;;;;;;;;5080328;28;1393;-72
2022/04/23 06:12:24;;;;;;;;;;;;;;;;;;5078938;28;1422;-72
2022/04/23 06:14:50;;;;;;;;;;;;;;;;;;5079266;28;1965;-70
2022/04/23 06:17:17;;;;;;;;;;;;;;;;;;5079149;28;2039;-72
2022/04/23 06:19:43;;;;;;;;;;;;;;;;;;5073557;28;1514;-72
2022/04/23 06:22:09;;;;;;;;;;;;;;;;;;5079872;28;1354;-72
2022/04/23 06:24:36;;;;;;;;;;;;;;;;;;5079471;28;1546;-72
2022/04/23 06:27:02;;;;;;;;;;;;;;;;;;5081808;28;1156;-73
2022/04/23 06:29:30;;;;;;;;;;;;;;;;;;5093708;28;675;-73
2022/04/23 06:31:56;;;;;;;;;;;;;;;;;;5092671;28;1114;-73
2022/04/23 06:34:22;;;;;;;;;;;;;;;;;;5093308;28;1955;-73
2022/04/23 06:36:48;;;;;;;;;;;;;;;;;;5091775;28;1193;-73
2022/04/23 06:39:14;;;;;;;;;;;;;;;;;;5093344;28;968;-72
2022/04/23 06:41:41;;;;;;;;;;;;;;;;;;5092779;28;1063;-71
2022/04/23 06:44:07;;;;;;;;;;;;;;;;;;5093291;28;1328;-73
2022/04/23 06:46:34;;;;;;;;;;;;;;;;;;5092755;28;937;-72
2022/04/23 06:49:05;;;;;;;;;;;;;;;;;;5093141;28;1122;-73
2022/04/23 06:51:31;;;;;;;;;;;;;;;;;;5093396;28;1071;-74
2022/04/23 06:53:57;;;;;;;;;;;;;;;;;;5093259;28;1285;-72
2022/04/23 06:56:23;;;;;;;;;;;;;;;;;;5092517;28;1922;-73
2022/04/23 06:58:49;;;;;;;;;;;;;;;;;;5093077;28;813;-73
2022/04/23 07:01:17;;;;;;;;;;;;;;;;;;5092972;28;1067;-72
2022/04/23 07:03:44;;;;;;;;;;;;;;;;;;5092957;28;1075;-72
2022/04/23 07:06:11;;;;;;;;;;;;;;;;;;5092149;28;1387;-73
2022/04/23 07:08:39;;;;;;;;;;;;;;;;;;5092514;28;1150;-73
2022/04/23 07:11:05;;;;;;;;;;;;;;;;;;5092922;28;1067;-73
2022/04/23 07:13:32;;;;;;;;;;;;;;;;;;5092580;28;921;-72
2022/04/23 07:15:59;;;;;;;;;;;;;;;;;;5092316;28;1906;-72
2022/04/23 07:18:25;;;;;;;;;;;;;;;;;;5091243;28;1059;-72
2022/04/23 07:20:52;;;;;;;;;;;;;;;;;;5092188;28;921;-72
2022/04/23 07:26:02;;;;;;;;;;;;;;;;;;5081341;28;1545;-72
2022/04/23 07:28:29;;;;;;;;;;;;;;;;;;5071881;28;1063;-72
2022/04/23 07:30:55;;;;;;;;;;;;;;;;;;5071875;28;952;-72
2022/04/23 07:39:10;;;;;;;;;;;;;;;;;;4964468;28;1501;-72
2022/04/23 07:41:36;;;;;;;;;;;;;;;;;;5044911;28;1499;-73
2022/04/23 07:44:02;;;;;;;;;;;;;;;;;;5071829;28;1444;-73
2022/04/23 07:46:29;;;;;;;;;;;;;;;;;;5085763;28;1016;-73
2022/04/23 07:48:57;;;;;;;;;;;;;;;;;;5085650;28;1422;-73
2022/04/23 07:51:26;;;;;;;;;;;;;;;;;;5082872;28;1183;-73
2022/04/23 07:53:53;;;;;;;;;;;;;;;;;;5082543;28;1494;-71
2022/04/23 07:56:19;;;;;;;;;;;;;;;;;;5083852;28;2022;-73
2022/04/23 07:58:45;;;;;;;;;;;;;;;;;;5091862;28;789;-72
2022/04/23 08:01:11;;;;;;;;;;;;;;;;;;5089169;22;3806;-72
2022/04/23 08:03:38;;;;;;;;;;;;;;;;;;5070475;28;1065;-72
2022/04/23 08:06:04;;;;;;;;;;;;;;;;;;5071268;28;1131;-71
2022/04/23 08:08:31;;;;;;;;;;;;;;;;;;5071344;28;1123;-72
2022/04/23 08:10:57;;;;;;;;;;;;;;;;;;5070902;28;1268;-72
2022/04/23 08:13:24;;;;;;;;;;;;;;;;;;5050795;28;1504;-73
2022/04/23 08:15:50;;;;;;;;;;;;;;;;;;5050923;28;1975;-73
2022/04/23 08:18:16;;;;;;;;;;;;;;;;;;5051085;28;1088;-72
2022/04/23 08:20:43;;;;;;;;;;;;;;;;;;5051017;28;1384;-72
2022/04/23 08:23:09;;;;;;;;;;;;;;;;;;5051779;28;1071;-72
2022/04/23 08:25:37;;;;;;;;;;;;;;;;;;5085804;28;1201;-71
2022/04/23 08:30:44;;;;;;;;;;;;;;;;;;5050516;28;1322;-72
2022/04/23 08:33:10;;;;;;;;;;;;;;;;;;5083354;28;1425;-72
2022/04/23 08:35:37;;;;;;;;;;;;;;;;;;5050682;28;1910;-73
2022/04/23 08:38:03;;;;;;;;;;;;;;;;;;5082950;28;1331;-73
2022/04/23 08:40:30;;;;;;;;;;;;;;;;;;5050672;28;1305;-72
2022/04/23 08:42:57;;;;;;;;;;;;;;;;;;5050950;28;1020;-73
2022/04/23 08:45:24;;;;;;;;;;;;;;;;;;5050960;28;1143;-72
2022/04/23 08:47:50;;;;;;;;;;;;;;;;;;5050616;28;786;-73
2022/04/23 08:50:16;;;;;;;;;;;;;;;;;;5050850;28;1311;-73
2022/04/23 08:52:42;;;;;;;;;;;;;;;;;;5051035;28;727;-73
2022/04/23 08:55:09;;;;;;;;;;;;;;;;;;5050903;28;1976;-72
2022/04/23 08:57:36;;;;;;;;;;;;;;;;;;5050287;28;1130;-73
2022/04/23 09:00:08;;;;;;;;;;;;;;;;;;5082625;28;1375;-73
2022/04/23 09:02:35;;;;;;;;;;;;;;;;;;5050530;28;1091;-72
2022/04/23 09:05:01;;;;;;;;;;;;;;;;;;5049574;28;1584;-73
2022/04/23 09:07:28;;;;;;;;;;;;;;;;;;5050490;28;964;-73
2022/04/23 09:09:55;;;;;;;;;;;;;;;;;;5050429;28;1281;-73
2022/04/23 09:12:24;;;;;;;;;;;;;;;;;;5050638;28;2493;-73
2022/04/23 09:14:51;;;;;;;;;;;;;;;;;;5050726;28;830;-73
2022/04/23 09:25:37;;;;;;;;;;;;;;;;;;5050598;28;1979;-73
2022/04/23 09:28:16;;;;;;;;;;;;;;;;;;5045688;28;1475;-73
2022/04/23 09:30:42;;;;;;;;;;;;;;;;;;5030629;28;1394;-73
2022/04/23 09:33:10;;;;;;;;;;;;;;;;;;5030679;28;1124;-72
2022/04/23 09:35:36;;;;;;;;;;;;;;;;;;5030504;28;1120;-73
2022/04/23 09:38:20;;;;;;;;;;;;;;;;;;5030987;28;1068;-73
2022/04/23 09:40:49;;;;;;;;;;;;;;;;;;5031434;28;1447;-73
2022/04/23 09:43:15;;;;;;;;;;;;;;;;;;5035142;28;1075;-73
2022/04/23 09:45:42;;;;;;;;;;;;;;;;;;5034612;28;1914;-73
2022/04/23 09:48:17;;;;;;;;;;;;;;;;;;5034689;28;1083;-73
2022/04/23 09:50:43;;;;;;;;;;;;;;;;;;5034256;28;1323;-73
2022/04/23 09:53:10;;;;;;;;;;;;;;;;;;5034427;28;1071;-73
2022/04/23 09:55:36;;;;;;;;;;;;;;;;;;5034172;28;1063;-73
2022/04/23 09:58:03;;;;;;;;;;;;;;;;;;5034061;28;1115;-73
2022/04/23 10:00:29;;;;;;;;;;;;;;;;;;5044632;28;2050;-72
2022/04/23 10:02:56;;;;;;;;;;;;;;;;;;5050298;28;1375;-72
2022/04/23 10:05:23;;;;;;;;;;;;;;;;;;5050682;28;1910;-72
2022/04/23 10:07:50;;;;;;;;;;;;;;;;;;5068957;28;1279;-72
2022/04/23 10:10:17;;;;;;;;;;;;;;;;;;5072554;28;1425;-72
2022/04/23 10:12:44;;;;;;;;;;;;;;;;;;5056971;28;1470;-72
2022/04/23 10:15:10;;;;;;;;;;;;;;;;;;5036343;28;1335;-72
2022/04/23 10:17:36;;;;;;;;;;;;;;;;;;5032911;28;1068;-72
2022/04/23 10:20:04;;;;;;;;;;;;;;;;;;5048448;28;1344;-72
2022/04/23 10:22:33;;;;;;;;;;;;;;;;;;5053025;28;1519;-72
2022/04/23 10:25:00;;;;;;;;;;;;;;;;;;5071597;28;1232;-72
2022/04/23 10:27:26;;;;;;;;;;;;;;;;;;5066301;28;1915;-72
2022/04/23 10:29:54;;;;;;;;;;;;;;;;;;5073376;28;1491;-72
2022/04/23 10:32:21;;;;;;;;;;;;;;;;;;5066688;28;1482;-71
2022/04/23 10:34:47;;;;;;;;;;;;;;;;;;5069122;28;1213;-72
2022/04/23 10:37:14;;;;;;;;;;;;;;;;;;5066965;28;1470;-72
2022/04/23 10:39:42;;;;;;;;;;;;;;;;;;5072860;28;1397;-71
2022/04/23 10:42:08;;;;;;;;;;;;;;;;;;5065813;28;1423;-72
2022/04/23 10:44:34;;;;;;;;;;;;;;;;;;5067090;28;1449;-72
2022/04/23 10:47:00;;;;;;;;;;;;;;;;;;5061965;28;1977;-72
2022/04/23 10:49:27;;;;;;;;;;;;;;;;;;5072840;28;1325;-71
2022/04/23 10:51:53;;;;;;;;;;;;;;;;;;5061556;28;1838;-72
2022/04/23 10:54:21;;;;;;;;;;;;;;;;;;5071507;28;1300;-72
2022/04/23 10:56:53;;;;;;;;;;;;;;;;;;5060958;28;1470;-71
2022/04/23 10:59:38;;;;;;;;;;;;;;;;;;5057681;28;1154;-72
2022/04/23 11:02:06;;;;;;;;;;;;;;;;;;5062777;28;1402;-73
2022/04/23 11:04:32;;;;;;;;;;;;;;;;;;5072282;28;1211;-72
2022/04/23 11:12:37;;;;;;;;;;;;;;;;;;5050484;28;1170;-71
2022/04/23 11:15:03;;;;;;;;;;;;;;;;;;5056045;28;1705;-71
2022/04/23 11:17:45;;;;;;;;;;;;;;;;;;5073972;28;1350;-72
2022/04/23 11:20:11;;;;;;;;;;;;;;;;;;5055250;28;1519;-72
2022/04/23 11:22:38;;;;;;;;;;;;;;;;;;5056670;28;1633;-71
2022/04/23 11:25:04;;;;;;;;;;;;;;;;;;5055771;28;1279;-71
2022/04/23 11:27:32;;;;;;;;;;;;;;;;;;5061625;28;1909;-72
2022/04/23 11:30:00;;;;;;;;;;;;;;;;;;5067107;28;1395;-72
2022/04/23 11:32:27;;;;;;;;;;;;;;;;;;5051590;28;1131;-71
2022/04/23 11:34:56;;;;;;;;;;;;;;;;;;5052010;28;1420;-70
2022/04/23 11:37:28;;;;;;;;;;;;;;;;;;5051612;28;1111;-71
2022/04/23 11:40:03;;;;;;;;;;;;;;;;;;5052037;28;1444;-71
2022/04/23 11:42:35;;;;;;;;;;;;;;;;;;5051271;28;1568;-71
2022/04/23 11:45:03;;;;;;;;;;;;;;;;;;5047644;28;1293;-71
2022/04/23 11:47:30;;;;;;;;;;;;;;;;;;5051584;28;1916;-71
2022/04/23 11:50:07;;;;;;;;;;;;;;;;;;5051550;28;1328;-72
2022/04/23 11:52:33;;;;;;;;;;;;;;;;;;5033932;28;1556;-72
2022/04/23 11:55:00;;;;;;;;;;;;;;;;;;5046327;28;1361;-71
2022/04/23 11:57:26;;;;;;;;;;;;;;;;;;5064026;28;1453;-72
2022/04/23 11:59:52;;;;;;;;;;;;;;;;;;5069908;28;1421;-72
2022/04/23 12:02:21;;;;;;;;;;;;;;;;;;5059188;28;1346;-71
2022/04/23 12:04:48;;;;;;;;;;;;;;;;;;5049072;28;957;-71
2022/04/23 12:07:14;;;;;;;;;;;;;;;;;;5058380;28;1985;-71
2022/04/23 12:09:44;;;;;;;;;;;;;;;;;;5064810;28;1557;-72
2022/04/23 12:12:10;;;;;;;;;;;;;;;;;;5070695;28;1209;-72
2022/04/23 12:14:42;;;;;;;;;;;;;;;;;;5064518;28;1774;-71
2022/04/23 12:17:09;;;;;;;;;;;;;;;;;;5055396;28;1618;-72
2022/04/23 12:19:36;;;;;;;;;;;;;;;;;;5064902;28;1823;-72
2022/04/23 12:22:03;;;;;;;;;;;;;;;;;;5055434;28;1517;-70
2022/04/23 12:24:32;;;;;;;;;;;;;;;;;;5059353;28;1799;-72
2022/04/23 12:27:01;;;;;;;;;;;;;;;;;;5055993;28;1918;-72
2022/04/23 12:40:45;;;;;;;;;;;;;;;;;;5062258;28;1612;-72
2022/04/23 12:43:18;;;;;;;;;;;;;;;;;;5061006;28;1556;-72
2022/04/23 12:45:44;;;;;;;;;;;;;;;;;;5052367;28;1971;-72
2022/04/23 12:48:12;;;;;;;;;;;;;;;;;;5059344;28;1838;-72
2022/04/23 12:50:39;;;;;;;;;;;;;;;;;;5068254;28;1505;-72
2022/04/23 12:53:06;;;;;;;;;;;;;;;;;;5051595;28;1951;-72
2022/04/23 12:55:36;;;;;;;;;;;;;;;;;;5068936;28;1196;-71
2022/04/23 12:58:06;;;;;;;;;;;;;;;;;;5057952;28;1731;-72
2022/04/23 13:00:32;;;;;;;;;;;;;;;;;;5062499;28;1405;-72
2022/04/23 13:03:01;;;;;;;;;;;;;;;;;;5057160;28;1672;-73
2022/04/23 13:05:27;;;;;;;;;;;;;;;;;;5069881;28;1230;-72
2022/04/23 13:10:39;;;;;;;;;;;;;;;;;;5070165;28;1403;-72
2022/04/23 13:13:07;;;;;;;;;;;;;;;;;;5073228;28;1071;-72
2022/04/23 13:15:34;;;;;;;;;;;;;;;;;;5069825;28;794;-73
2022/04/23 13:18:01;;;;;;;;;;;;;;;;;;5072397;28;913;-72
2022/04/23 13:20:27;;;;;;;;;;;;;;;;;;5072615;28;1373;-72
2022/04/23 13:22:55;;;;;;;;;;;;;;;;;;5072945;28;893;-72
2022/04/23 13:25:21;;;;;;;;;;;;;;;;;;5073075;28;961;-73
2022/04/23 13:27:47;;;;;;;;;;;;;;;;;;5072468;28;2027;-73
2022/04/23 13:30:14;;;;;;;;;;;;;;;;;;5073447;28;1333;-72
2022/04/23 13:32:42;;;;;;;;;;;;;;;;;;5074404;28;936;-73
2022/04/23 13:35:10;;;;;;;;;;;;;;;;;;5041033;28;1459;-73
2022/04/23 13:37:36;;;;;;;;;;;;;;;;;;5034051;28;993;-73
2022/04/23 13:40:04;;;;;;;;;;;;;;;;;;5034257;28;1389;-73
2022/04/23 13:42:30;;;;;;;;;;;;;;;;;;5034080;28;1048;-73
2022/04/23 13:44:57;;;;;;;;;;;;;;;;;;5033948;28;1068;-73
2022/04/23 13:47:23;;;;;;;;;;;;;;;;;;5033649;28;1910;-73
2022/04/23 13:49:49;;;;;;;;;;;;;;;;;;5032758;28;1352;-71
2022/04/23 13:52:16;;;;;;;;;;;;;;;;;;5034226;28;798;-71
2022/04/23 13:54:42;;;;;;;;;;;;;;;;;;5033909;28;1123;-72
2022/04/23 13:57:09;;;;;;;;;;;;;;;;;;5042270;28;1852;-72
2022/04/23 13:59:36;;;;;;;;;;;;;;;;;;5052270;28;1394;-72
2022/04/23 14:10:07;;;;;;;;;;;;;;;;;;5073382;28;1137;-72
2022/04/23 14:12:34;;;;;;;;;;;;;;;;;;5075486;28;1391;-72
2022/04/23 14:15:01;;;;;;;;;;;;;;;;;;5093851;28;806;-72
2022/04/23 14:17:27;;;;;;;;;;;;;;;;;;5093001;28;1111;-71
2022/04/23 14:19:53;;;;;;;;;;;;;;;;;;5093649;28;973;-72
2022/04/23 14:22:19;;;;;;;;;;;;;;;;;;5093662;28;1320;-72
2022/04/23 14:24:46;;;;;;;;;;;;;;;;;;5093709;28;983;-71
2022/04/23 14:27:12;;;;;;;;;;;;;;;;;;5092524;28;1918;-72
2022/04/23 14:29:39;;;;;;;;;;;;;;;;;;5093799;28;790;-71
2022/04/23 14:32:06;;;;;;;;;;;;;;;;;;5093549;28;1055;-72
2022/04/23 14:34:33;;;;;;;;;;;;;;;;;;5093353;28;1417;-74
2022/04/23 14:37:00;;;;;;;;;;;;;;;;;;5093178;28;1056;-73
2022/04/23 14:39:26;;;;;;;;;;;;;;;;;;5093335;28;1063;-73
2022/04/23 14:41:53;;;;;;;;;;;;;;;;;;5092876;28;1087;-73
2022/04/23 14:44:19;;;;;;;;;;;;;;;;;;5093184;28;1334;-74
2022/04/23 14:46:48;;;;;;;;;;;;;;;;;;5092832;28;1979;-74
2022/04/23 14:49:15;;;;;;;;;;;;;;;;;;5092943;28;1094;-73
2022/04/23 14:54:24;;;;;;;;;;;;;;;;;;5092497;28;1351;-73
2022/04/23 14:56:51;;;;;;;;;;;;;;;;;;5091156;28;1179;-73
2022/04/23 14:59:17;;;;;;;;;;;;;;;;;;5092849;28;798;-73
2022/04/23 15:01:46;;;;;;;;;;;;;;;;;;5083212;28;1527;-73
2022/04/23 15:04:14;;;;;;;;;;;;;;;;;;5072337;28;1359;-72
2022/04/23 15:06:40;;;;;;;;;;;;;;;;;;5071720;28;1977;-73
2022/04/23 15:09:06;;;;;;;;;;;;;;;;;;5072367;28;1080;-73
2022/04/23 15:11:33;;;;;;;;;;;;;;;;;;5071621;28;830;-73
2022/04/23 15:14:00;;;;;;;;;;;;;;;;;;5072363;28;1294;-73
2022/04/23 15:16:26;;;;;;;;;;;;;;;;;;5071929;28;948;-73
2022/04/23 15:18:52;;;;;;;;;;;;;;;;;;5072320;28;1072;-73
2022/04/23 15:21:20;;;;;;;;;;;;;;;;;;5071951;28;972;-73
2022/04/23 15:23:46;;;;;;;;;;;;;;;;;;5070627;28;1313;-73
2022/04/23 15:26:14;;;;;;;;;;;;;;;;;;5071533;28;1079;-73
2022/04/23 15:28:40;;;;;;;;;;;;;;;;;;5071721;28;1969;-72
2022/04/23 15:31:07;;;;;;;;;;;;;;;;;;5071389;28;1079;-73
2022/04/23 15:33:34;;;;;;;;;;;;;;;;;;5071658;28;1326;-73
2022/04/23 15:36:00;;;;;;;;;;;;;;;;;;5071888;28;1139;-73
2022/04/23 15:38:27;;;;;;;;;;;;;;;;;;5070707;28;1067;-73
2022/04/23 15:40:54;;;;;;;;;;;;;;;;;;5070886;28;1491;-72
2022/04/23 15:43:20;;;;;;;;;;;;;;;;;;5071726;28;1294;-72
2022/04/23 15:45:46;;;;;;;;;;;;;;;;;;5072008;28;1071;-72
2022/04/23 15:48:12;;;;;;;;;;;;;;;;;;5071667;28;1979;-73
2022/04/23 15:50:39;;;;;;;;;;;;;;;;;;5070916;28;1083;-73
2022/04/23 15:53:05;;;;;;;;;;;;;;;;;;5071647;28;1400;-73
2022/04/23 15:55:33;;;;;;;;;;;;;;;;;;5071805;28;1126;-73
2022/04/23 15:58:00;;;;;;;;;;;;;;;;;;5071411;28;814;-72
2022/04/23 16:00:26;;;;;;;;;;;;;;;;;;5067950;28;2111;-73
2022/04/23 16:05:32;;;;;;;;;;;;;;;;;;5070905;28;1122;-73
2022/04/23 16:07:58;;;;;;;;;;;;;;;;;;5070978;28;1935;-72
2022/04/23 16:10:25;;;;;;;;;;;;;;;;;;5071137;28;1244;-72
2022/04/23 16:12:52;;;;;;;;;;;;;;;;;;5071250;28;1312;-72
2022/04/23 16:15:18;;;;;;;;;;;;;;;;;;5070902;28;1114;-72
2022/04/23 16:17:45;;;;;;;;;;;;;;;;;;5071091;28;932;-72
2022/04/23 16:20:11;;;;;;;;;;;;;;;;;;5056095;28;1357;-73
2022/04/23 16:22:38;;;;;;;;;;;;;;;;;;5050923;28;1302;-72
2022/04/23 16:25:04;;;;;;;;;;;;;;;;;;5050950;28;1048;-72
2022/04/23 16:27:31;;;;;;;;;;;;;;;;;;5050530;28;1910;-73
2022/04/23 16:29:58;;;;;;;;;;;;;;;;;;5051044;28;1087;-73
2022/04/23 16:32:25;;;;;;;;;;;;;;;;;;5050996;28;1403;-72
2022/04/23 16:34:51;;;;;;;;;;;;;;;;;;5050952;28;1087;-73
2022/04/23 16:48:26;;;;;;;;;;;;;;;;;;5050863;28;1971;-72
2022/04/23 16:50:54;;;;;;;;;;;;;;;;;;5054528;28;1104;-72
2022/04/23 16:53:20;;;;;;;;;;;;;;;;;;5055698;28;1436;-72
2022/04/23 16:55:47;;;;;;;;;;;;;;;;;;5064207;28;1146;-72
2022/04/23 16:58:14;;;;;;;;;;;;;;;;;;5076858;28;787;-73
2022/04/23 17:00:42;;;;;;;;;;;;;;;;;;5077017;28;1126;-73
2022/04/23 17:03:11;;;;;;;;;;;;;;;;;;5076797;28;1410;-72
2022/04/23 17:05:37;;;;;;;;;;;;;;;;;;5076967;28;841;-71
2022/04/23 17:08:04;;;;;;;;;;;;;;;;;;5076760;28;1914;-73
2022/04/23 17:10:30;;;;;;;;;;;;;;;;;;5075907;28;1312;-72
2022/04/23 17:12:56;;;;;;;;;;;;;;;;;;5077282;28;1318;-72
2022/04/23 17:15:22;;;;;;;;;;;;;;;;;;5076826;28;1134;-71
2022/04/23 17:17:50;;;;;;;;;;;;;;;;;;5075703;28;1225;-72
2022/04/23 17:20:16;;;;;;;;;;;;;;;;;;5077012;28;1051;-73
2022/04/23 17:22:42;;;;;;;;;;;;;;;;;;5076834;28;1300;-71
2022/04/23 17:25:09;;;;;;;;;;;;;;;;;;5075319;28;1223;-73
2022/04/23 17:27:35;;;;;;;;;;;;;;;;;;5076803;28;1975;-72
2022/04/23 17:30:02;;;;;;;;;;;;;;;;;;5077014;28;1083;-72
2022/04/23 17:32:28;;;;;;;;;;;;;;;;;;5076309;28;1482;-72
2022/04/23 17:34:55;;;;;;;;;;;;;;;;;;5077092;28;1115;-72
2022/04/23 17:37:22;;;;;;;;;;;;;;;;;;5076753;28;897;-72
2022/04/23 17:39:48;;;;;;;;;;;;;;;;;;5077272;28;901;-72
2022/04/23 17:42:14;;;;;;;;;;;;;;;;;;5076554;28;1402;-72
2022/04/23 17:44:40;;;;;;;;;;;;;;;;;;5077183;28;885;-72
2022/04/23 17:47:08;;;;;;;;;;;;;;;;;;5075677;28;1361;-72
2022/04/23 17:49:34;;;;;;;;;;;;;;;;;;5076726;28;1914;-72
2022/04/23 17:52:02;;;;;;;;;;;;;;;;;;5076788;28;799;-72
2022/04/23 17:54:28;;;;;;;;;;;;;;;;;;5070792;28;1712;-73
2022/04/23 17:56:55;;;;;;;;;;;;;;;;;;5071392;28;1349;-73
2022/04/23 17:59:21;;;;;;;;;;;;;;;;;;5089819;28;1010;-72
2022/04/23 18:07:26;;;;;;;;;;;;;;;;;;5085421;28;1430;-74
2022/04/23 18:09:55;;;;;;;;;;;;;;;;;;5089360;28;1412;-72
2022/04/23 18:12:22;;;;;;;;;;;;;;;;;;5082711;28;1772;-71